Time;durP1;ratioP1;P1;durP2;ratioP2;P2;SDS_P1;SDS_P2;PMS_P1;PMS_P2;Temp;Humidity;BMP_temperature;BMP_pressure;BME280_temperature;BME280_humidity;BME280_pressure;Samples;Min_cycle;Max_cycle;Signal;HPM_P1;HPM_P2
2023/02/13 00:01:28;;;;;;;51.20;11.15;;;;;;;6.85;100.00;98269.41;5095514;27;20086;-47
2023/02/13 00:03:57;;;;;;;93.75;14.13;;;;;;;6.60;100.00;98266.28;5102685;27;20084;-48
2023/02/13 00:06:25;;;;;;;34.00;11.23;;;;;;;7.08;100.00;98265.59;5093244;27;20085;-48
2023/02/13 00:08:53;;;;;;;56.08;11.90;;;;;;;6.74;100.00;98262.97;5098184;27;20520;-53
2023/02/13 00:11:23;;;;;;;117.07;16.33;;;;;;;6.61;100.00;98268.00;5099983;27;20784;-49
2023/02/13 00:13:51;;;;;;;60.97;13.93;;;;;;;6.82;100.00;98260.84;5098420;27;20082;-52
2023/02/13 00:16:19;;;;;;;61.17;12.48;;;;;;;6.62;100.00;98254.81;5094581;27;20090;-47
2023/02/13 00:18:48;;;;;;;78.03;14.40;;;;;;;6.74;100.00;98255.97;5093122;27;20079;-50
2023/02/13 00:21:16;;;;;;;50.42;11.95;;;;;;;6.78;100.00;98249.66;5107750;27;20075;-50
2023/02/13 00:23:44;;;;;;;73.30;14.02;;;;;;;6.49;100.00;98248.47;5093638;27;20819;-55
2023/02/13 00:26:16;;;;;;;81.20;14.07;;;;;;;6.08;100.00;98251.31;5100392;27;20082;-48
2023/02/13 00:28:46;;;;;;;38.63;11.02;;;;;;;6.16;100.00;98248.34;5096734;27;20436;-47
2023/02/13 00:31:16;;;;;;;41.35;12.55;;;;;;;6.42;100.00;98239.22;5096431;27;20087;-54
2023/02/13 00:33:44;;;;;;;75.35;14.52;;;;;;;6.20;100.00;98242.03;5097797;27;20101;-50
2023/02/13 00:36:14;;;;;;;66.85;13.30;;;;;;;6.40;100.00;98241.91;5099732;28;20082;-46
2023/02/13 00:38:43;;;;;;;57.25;11.80;;;;;;;5.87;100.00;98239.19;5098348;28;20473;-48
2023/02/13 00:41:11;;;;;;;42.10;11.63;;;;;;;6.27;100.00;98243.44;5096028;28;20084;-49
2023/02/13 00:43:40;;;;;;;49.30;12.00;;;;;;;6.18;100.00;98242.09;5097489;27;20074;-49
2023/02/13 00:46:10;;;;;;;30.55;11.85;;;;;;;6.83;100.00;98236.31;5099325;27;20064;-48
2023/02/13 00:48:39;;;;;;;33.13;12.38;;;;;;;7.63;100.00;98232.97;5106920;27;20074;-48
2023/02/13 00:51:08;;;;;;;51.70;12.93;;;;;;;7.26;100.00;98234.97;5109797;27;20106;-47
2023/02/13 00:53:37;;;;;;;42.63;11.90;;;;;;;6.54;100.00;98240.41;5109642;27;20071;-53
2023/02/13 00:56:06;;;;;;;74.40;15.35;;;;;;;6.61;100.00;98236.56;5100379;27;20060;-50
2023/02/13 00:58:34;;;;;;;52.60;12.65;;;;;;;7.16;100.00;98227.63;5112346;27;20066;-52
2023/02/13 01:01:03;;;;;;;41.10;12.10;;;;;;;6.77;100.00;98234.00;5098129;27;20067;-47
2023/02/13 01:03:33;;;;;;;37.28;12.13;;;;;;;7.30;100.00;98228.63;5110076;27;20086;-44
2023/02/13 01:06:01;;;;;;;77.95;14.30;;;;;;;7.01;100.00;98227.50;5104408;27;20076;-50
2023/02/13 01:08:30;;;;;;;41.30;12.60;;;;;;;6.50;100.00;98229.19;5100282;27;20135;-50
2023/02/13 01:10:58;;;;;;;51.83;13.75;;;;;;;6.58;100.00;98231.44;5096030;28;20093;-51
2023/02/13 01:13:27;;;;;;;38.35;12.40;;;;;;;5.81;100.00;98229.00;5100287;27;20078;-50
2023/02/13 01:15:55;;;;;;;48.22;12.07;;;;;;;6.06;100.00;98231.38;5094077;27;20063;-48
2023/02/13 01:18:24;;;;;;;40.60;11.38;;;;;;;5.67;100.00;98233.09;5098389;27;20059;-47
2023/02/13 01:20:58;;;;;;;47.30;11.90;;;;;;;6.03;100.00;98228.91;5106641;27;20067;-50
2023/02/13 01:23:30;;;;;;;33.05;10.98;;;;;;;6.31;100.00;98233.66;5100047;27;20504;-46
2023/02/13 01:25:58;;;;;;;42.13;11.88;;;;;;;5.80;100.00;98232.56;5097039;27;20099;-46
2023/02/13 01:28:27;;;;;;;39.45;11.70;;;;;;;6.22;100.00;98229.69;5091719;27;20071;-45
2023/02/13 01:30:56;;;;;;;43.10;13.20;;;;;;;6.22;100.00;98229.69;5087905;27;20078;-47
2023/02/13 01:33:27;;;;;;;40.08;13.70;;;;;;;6.08;100.00;98232.97;5097983;27;20092;-46
2023/02/13 01:35:57;;;;;;;66.68;15.40;;;;;;;6.68;100.00;98231.84;5100810;27;20078;-49
2023/02/13 01:38:25;;;;;;;52.17;13.32;;;;;;;7.45;100.00;98226.09;5094424;27;20079;-47
2023/02/13 01:40:54;;;;;;;69.03;12.65;;;;;;;7.59;100.00;98218.34;5103344;27;20144;-50
2023/02/13 01:43:23;;;;;;;55.95;11.52;;;;;;;7.17;100.00;98214.44;5100671;27;20503;-49
2023/02/13 01:45:54;;;;;;;63.38;14.05;;;;;;;7.21;100.00;98218.59;5100310;27;20066;-48
2023/02/13 01:48:24;;;;;;;64.25;13.20;;;;;;;7.50;100.00;98211.81;5101329;27;20071;-49
2023/02/13 01:50:57;;;;;;;84.95;14.13;;;;;;;6.13;100.00;98224.91;5099314;27;20066;-53
2023/02/13 01:53:32;;;;;;;91.43;13.85;;;;;;;6.25;100.00;98232.16;5098419;27;20401;-49
2023/02/13 01:56:07;;;;;;;63.50;13.38;;;;;;;6.45;100.00;98231.19;5102379;27;20830;-47
2023/02/13 01:58:38;;;;;;;46.45;12.55;;;;;;;6.97;100.00;98217.25;5094870;27;20060;-48
2023/02/13 02:01:08;;;;;;;53.25;12.90;;;;;;;6.95;100.00;98224.34;5091152;28;20105;-48
2023/02/13 02:03:38;;;;;;;61.85;13.73;;;;;;;6.68;100.00;98229.22;5100454;27;20071;-45
2023/02/13 02:06:12;;;;;;;69.25;13.27;;;;;;;6.60;100.00;98226.97;5091775;27;20123;-51
2023/02/13 02:08:40;;;;;;;61.83;13.13;;;;;;;5.94;100.00;98230.16;5096049;27;20051;-50
2023/02/13 02:11:11;;;;;;;70.80;14.25;;;;;;;6.84;100.00;98238.00;5092762;27;20618;-46
2023/02/13 02:13:40;;;;;;;91.03;16.10;;;;;;;6.25;100.00;98236.56;5094426;28;20486;-50
2023/02/13 02:16:08;;;;;;;47.67;12.40;;;;;;;6.28;100.00;98228.56;5096256;27;20079;-46
2023/02/13 02:18:36;;;;;;;66.80;13.23;;;;;;;6.42;100.00;98229.56;5091371;28;20476;-48
2023/02/13 02:21:37;;;;;;;94.78;14.00;;;;;;;6.23;100.00;98236.66;5091556;28;20795;-46
2023/02/13 02:24:22;;;;;;;69.53;12.43;;;;;;;6.49;100.00;98229.28;5067047;28;20086;-46
2023/02/13 02:27:10;;;;;;;74.53;13.55;;;;;;;6.59;100.00;98230.53;5098671;27;20102;-48
2023/02/13 02:30:16;;;;;;;57.75;14.15;;;;;;;6.55;100.00;98224.59;5094585;28;20091;-50
2023/02/13 02:33:29;;;;;;;132.60;15.57;;;;;;;6.44;100.00;98229.50;5047737;28;20102;-46
2023/02/13 02:36:09;;;;;;;95.47;14.98;;;;;;;6.71;100.00;98232.53;5080274;28;20609;-45
2023/02/13 02:38:47;;;;;;;98.47;12.70;;;;;;;7.02;100.00;98226.59;5095421;27;20071;-46
2023/02/13 02:44:10;;;;;;;101.43;12.10;;;;;;;6.38;100.00;98233.28;5105328;27;20460;-51
2023/02/13 02:49:57;;;;;;;104.72;14.13;;;;;;;7.10;100.00;98228.81;5091788;28;20078;-48
2023/02/13 02:52:20;;;;;;;70.30;12.48;;;;;;;6.44;100.00;98236.53;5097213;28;20079;-52
2023/02/13 02:55:06;;;;;;;81.88;13.55;;;;;;;6.26;100.00;98225.16;5093483;28;20083;-53
2023/02/13 03:06:11;;;;;;;52.78;12.00;;;;;;;6.63;100.00;98224.19;5097309;28;20079;-47
2023/02/13 03:14:20;;;;;;;109.60;14.07;;;;;;;5.76;100.00;98231.84;5080307;28;20083;-51
2023/02/13 03:22:38;;;;;;;72.25;11.93;;;;;;;6.16;100.00;98223.00;5094015;28;20106;-41
2023/02/13 03:25:13;;;;;;;33.88;11.50;;;;;;;5.78;100.00;98218.66;5103831;27;20091;-49
2023/02/13 03:30:40;;;;;;;50.92;12.65;;;;;;;5.83;100.00;98230.63;5097918;27;20525;-51
2023/02/13 03:33:18;;;;;;;69.85;13.93;;;;;;;6.19;100.00;98235.06;5092844;27;20083;-49
2023/02/13 03:38:42;;;;;;;83.75;15.88;;;;;;;6.47;100.00;98232.00;5099278;27;20102;-49
2023/02/13 03:41:21;;;;;;;58.15;11.48;;;;;;;6.49;100.00;98235.38;5097479;27;20072;-47
2023/02/13 03:43:58;;;;;;;39.13;11.70;;;;;;;7.08;100.00;98228.88;5094810;27;20083;-50
2023/02/13 03:46:27;;;;;;;44.38;11.50;;;;;;;6.57;100.00;98240.22;5097659;28;20079;-51
2023/02/13 03:51:41;;;;;;;75.93;12.13;;;;;;;5.94;100.00;98238.88;5066940;28;20088;-53
2023/02/13 03:54:16;;;;;;;129.38;14.88;;;;;;;6.01;100.00;98242.03;5101752;27;20107;-44
2023/02/13 03:59:35;;;;;;;112.07;15.93;;;;;;;6.08;100.00;98238.22;5098465;27;20079;-52
2023/02/13 04:02:05;;;;;;;;;;;;;;;6.11;100.00;98239.84;5097894;27;20090;-54
2023/02/13 04:04:40;;;;;;;61.23;12.53;;;;;;;5.89;100.00;98234.75;5094996;28;19959;-50
2023/02/13 04:07:10;;;;;;;64.25;11.35;;;;;;;6.00;100.00;98229.88;5104953;27;20507;-47
2023/02/13 04:09:41;;;;;;;59.88;11.75;;;;;;;5.51;100.00;98224.28;5100720;27;20071;-49
2023/02/13 04:12:15;;;;;;;45.42;11.90;;;;;;;5.90;100.00;98216.34;5101107;27;20638;-50
2023/02/13 04:14:48;;;;;;;67.10;13.02;;;;;;;6.32;100.00;98219.63;5093081;27;20082;-48
2023/02/13 04:17:20;;;;;;;44.85;12.15;;;;;;;5.99;100.00;98222.97;5098771;27;20079;-48
2023/02/13 04:19:48;;;;;;;42.25;12.15;;;;;;;5.83;100.00;98219.31;5094877;27;20087;-52
2023/02/13 04:22:16;;;;;;;43.53;11.40;;;;;;;6.13;100.00;98223.13;5101448;27;20433;-49
2023/02/13 04:24:45;;;;;;;53.65;12.88;;;;;;;5.71;100.00;98228.56;5095473;27;20075;-48
2023/02/13 04:27:15;;;;;;;34.30;11.80;;;;;;;6.18;100.00;98228.16;5099397;27;20083;-52
2023/02/13 04:29:44;;;;;;;46.63;12.45;;;;;;;5.78;100.00;98239.63;5093248;27;20487;-51
2023/02/13 04:32:13;;;;;;;50.97;12.73;;;;;;;6.18;100.00;98236.00;5095022;27;20495;-47
2023/02/13 04:34:41;;;;;;;38.90;12.50;;;;;;;6.29;100.00;98227.63;5102841;27;20094;-51
2023/02/13 04:37:09;;;;;;;38.45;11.65;;;;;;;6.28;100.00;98233.81;5100549;27;20079;-48
2023/02/13 04:39:37;;;;;;;73.57;12.82;;;;;;;6.16;100.00;98235.25;5094823;27;20516;-50
2023/02/13 04:42:06;;;;;;;35.60;11.23;;;;;;;6.26;100.00;98228.63;5095617;28;20080;-45
2023/02/13 04:44:35;;;;;;;32.40;11.55;;;;;;;6.31;100.00;98231.88;5099126;27;20515;-52
2023/02/13 04:47:04;;;;;;;44.08;11.50;;;;;;;6.01;100.00;98241.19;5100858;27;20444;-49
2023/02/13 04:49:32;;;;;;;30.27;11.25;;;;;;;6.85;100.00;98232.69;5099683;27;20066;-50
2023/02/13 04:52:00;;;;;;;92.53;14.70;;;;;;;6.44;100.00;98239.16;5094996;27;20714;-48
2023/02/13 04:54:29;;;;;;;40.00;10.85;;;;;;;6.42;100.00;98231.34;5102004;27;20063;-49
2023/02/13 04:56:57;;;;;;;45.13;11.10;;;;;;;6.80;100.00;98234.69;5097380;27;20091;-50
2023/02/13 04:59:25;;;;;;;28.40;11.57;;;;;;;6.94;100.00;98233.97;5099483;27;20788;-50
2023/02/13 05:01:55;;;;;;;33.15;11.50;;;;;;;7.19;100.00;98236.22;5101773;27;20074;-47
2023/02/13 05:04:24;;;;;;;54.13;12.90;;;;;;;7.55;100.00;98232.56;5093025;27;20078;-52
2023/02/13 05:06:52;;;;;;;35.15;10.75;;;;;;;7.75;100.00;98224.47;5100742;27;20082;-50
2023/02/13 05:09:21;;;;;;;38.00;11.20;;;;;;;8.02;100.00;98229.97;5097219;27;20083;-50
2023/02/13 05:11:51;;;;;;;38.55;11.48;;;;;;;7.21;100.00;98238.75;5094945;27;20491;-47
2023/02/13 05:14:20;;;;;;;31.60;11.57;;;;;;;6.54;100.00;98245.66;5107001;27;20055;-52
2023/02/13 05:16:49;;;;;;;36.50;11.20;;;;;;;7.12;100.00;98240.06;5090950;27;20074;-51
2023/02/13 05:19:19;;;;;;;51.78;11.15;;;;;;;7.73;100.00;98230.72;5100298;27;20312;-47
2023/02/13 05:24:33;;;;;;;46.75;11.07;;;;;;;8.10;100.00;98240.06;5100678;27;20464;-54
2023/02/13 05:27:01;;;;;;;38.67;9.93;;;;;;;7.71;100.00;98241.31;5094323;27;20088;-51
2023/02/13 05:29:29;;;;;;;66.05;11.77;;;;;;;8.00;100.00;98234.47;5102259;27;20066;-53
2023/02/13 05:31:59;;;;;;;59.38;11.82;;;;;;;7.22;100.00;98238.66;5092507;28;20071;-52
2023/02/13 05:34:29;;;;;;;53.25;10.57;;;;;;;7.36;100.00;98240.53;5092924;27;20079;-48
2023/02/13 05:36:57;;;;;;;41.25;10.60;;;;;;;7.53;100.00;98245.75;5099845;27;20498;-49
2023/02/13 05:39:26;;;;;;;48.35;10.68;;;;;;;7.11;100.00;98247.06;5095039;27;20133;-48
2023/02/13 05:41:54;;;;;;;52.72;11.35;;;;;;;7.25;100.00;98249.00;5103365;27;20063;-48
2023/02/13 05:44:23;;;;;;;37.78;10.15;;;;;;;7.25;100.00;98242.91;5093989;27;20075;-51
2023/02/13 05:46:52;;;;;;;36.20;10.48;;;;;;;7.53;100.00;98239.66;5089809;28;20079;-52
2023/02/13 05:49:21;;;;;;;43.20;11.38;;;;;;;7.73;100.00;98236.81;5094268;27;20066;-47
2023/02/13 05:51:51;;;;;;;26.13;10.60;;;;;;;7.98;100.00;98238.97;5097562;27;20063;-47
2023/02/13 05:54:20;;;;;;;28.88;10.48;;;;;;;8.16;100.00;98239.72;5092224;27;20512;-54
2023/02/13 05:56:48;;;;;;;41.28;11.02;;;;;;;8.23;100.00;98238.44;5093351;27;20098;-48
2023/02/13 05:59:17;;;;;;;36.28;10.77;;;;;;;8.12;100.00;98235.56;5098695;27;20472;-49
2023/02/13 06:01:45;;;;;;;38.58;10.90;;;;;;;7.88;100.00;98239.53;5095835;27;20067;-51
2023/02/13 06:04:13;;;;;;;38.97;10.32;;;;;;;8.12;100.00;98238.19;5094156;28;20087;-53
2023/02/13 06:06:42;;;;;;;66.85;12.18;;;;;;;8.22;100.00;98233.25;5092828;28;20074;-46
2023/02/13 06:09:12;;;;;;;42.42;11.63;;;;;;;8.07;100.00;98232.34;5094781;27;20064;-47
2023/02/13 06:11:40;;;;;;;64.70;14.23;;;;;;;7.92;100.00;98241.09;5092690;27;20127;-52
2023/02/13 06:14:08;;;;;;;37.83;12.00;;;;;;;8.44;100.00;98240.81;5099735;27;20074;-50
2023/02/13 06:16:37;;;;;;;47.10;11.23;;;;;;;8.04;100.00;98248.28;5093809;28;20063;-50
2023/02/13 06:19:05;;;;;;;48.90;13.05;;;;;;;8.55;100.00;98252.41;5096571;28;20067;-49
2023/02/13 06:21:36;;;;;;;30.17;12.45;;;;;;;8.35;100.00;98257.06;5093671;27;20079;-48
2023/02/13 06:24:05;;;;;;;29.45;10.93;;;;;;;8.45;100.00;98259.13;5095852;27;20070;-49
2023/02/13 06:26:35;;;;;;;36.80;10.15;;;;;;;8.71;100.00;98268.16;5091148;27;20062;-50
2023/02/13 06:29:03;;;;;;;33.80;9.73;;;;;;;8.35;100.00;98264.97;5094740;27;20064;-46
2023/02/13 06:31:33;;;;;;;41.25;10.70;;;;;;;8.72;100.00;98269.84;5099499;28;20063;-55
2023/02/13 06:34:02;;;;;;;39.83;10.55;;;;;;;8.72;100.00;98272.47;5094345;28;20075;-50
2023/02/13 06:36:30;;;;;;;32.63;9.68;;;;;;;8.62;100.00;98276.56;5097520;28;20082;-47
2023/02/13 06:38:59;;;;;;;29.17;10.73;;;;;;;8.74;100.00;98267.13;5091120;27;20086;-49
2023/02/13 06:41:27;;;;;;;41.45;10.90;;;;;;;8.46;100.00;98275.75;5098415;27;20079;-47
2023/02/13 06:43:57;;;;;;;52.50;11.35;;;;;;;8.17;100.00;98283.44;5096303;28;20094;-47
2023/02/13 06:46:25;;;;;;;46.83;10.37;;;;;;;8.52;100.00;98280.66;5090868;27;20056;-45
2023/02/13 06:48:53;;;;;;;49.72;10.20;;;;;;;8.35;100.00;98283.38;5092328;28;20083;-47
2023/02/13 06:51:22;;;;;;;30.45;10.27;;;;;;;8.26;100.00;98279.47;5105688;28;20078;-46
2023/02/13 06:53:50;;;;;;;36.42;12.35;;;;;;;7.66;100.00;98280.09;5106771;27;20098;-53
2023/02/13 06:56:18;;;;;;;33.58;10.75;;;;;;;7.80;100.00;98285.44;5102235;27;20106;-52
2023/02/13 06:58:47;;;;;;;30.35;10.20;;;;;;;8.35;100.00;98281.56;5101857;27;20086;-48
2023/02/13 07:01:16;;;;;;;29.95;10.18;;;;;;;8.44;100.00;98282.88;5107732;27;20441;-54
2023/02/13 07:03:46;;;;;;;28.70;9.97;;;;;;;8.57;100.00;98291.78;5106937;27;20546;-51
2023/02/13 07:06:17;;;;;;;29.38;9.93;;;;;;;8.79;100.00;98286.97;5108945;27;20122;-53
2023/02/13 07:08:46;;;;;;;30.55;10.20;;;;;;;8.92;100.00;98292.38;5106608;27;20075;-48
2023/02/13 07:11:17;;;;;;;32.30;10.05;;;;;;;9.04;100.00;98294.28;5108142;27;20074;-52
2023/02/13 07:13:46;;;;;;;37.40;10.70;;;;;;;8.53;100.00;98299.00;5103464;27;20089;-47
2023/02/13 07:16:16;;;;;;;49.28;10.48;;;;;;;8.67;100.00;98306.09;5105649;27;20075;-50
2023/02/13 07:18:44;;;;;;;36.53;9.73;;;;;;;8.66;100.00;98311.44;5103727;27;20075;-50
2023/02/13 07:21:12;;;;;;;30.08;10.50;;;;;;;9.04;100.00;98307.44;5109959;27;20075;-46
2023/02/13 07:23:41;;;;;;;21.33;9.60;;;;;;;9.06;100.00;98303.91;5108932;27;20087;-52
2023/02/13 07:26:10;;;;;;;28.30;10.13;;;;;;;8.78;100.00;98313.38;5110239;27;20083;-52
2023/02/13 07:28:39;;;;;;;18.48;8.50;;;;;;;8.72;100.00;98327.72;5105252;27;20514;-50
2023/02/13 07:31:07;;;;;;;22.73;8.98;;;;;;;8.18;100.00;98327.19;5103722;27;20072;-52
2023/02/13 07:33:37;;;;;;;27.40;10.32;;;;;;;8.76;100.00;98329.25;5108974;27;20079;-48
2023/02/13 07:36:06;;;;;;;25.40;9.80;;;;;;;8.63;100.00;98332.66;5108815;27;20091;-53
2023/02/13 07:38:35;;;;;;;24.58;9.65;;;;;;;8.71;100.00;98341.81;5106125;27;20080;-50
2023/02/13 07:41:04;;;;;;;23.83;9.88;;;;;;;8.73;100.00;98339.94;5110178;27;20087;-48
2023/02/13 07:43:32;;;;;;;29.27;10.43;;;;;;;8.73;100.00;98336.47;5104187;27;20093;-47
2023/02/13 07:46:02;;;;;;;20.17;9.27;;;;;;;8.29;100.00;98338.00;5102575;27;20071;-50
2023/02/13 07:48:30;;;;;;;26.00;10.17;;;;;;;8.37;100.00;98334.94;5105701;27;20075;-47
2023/02/13 07:51:01;;;;;;;21.90;9.68;;;;;;;8.46;100.00;98336.22;5109528;27;20515;-50
2023/02/13 07:53:31;;;;;;;30.23;11.55;;;;;;;8.67;100.00;98344.69;5106537;27;20086;-47
2023/02/13 07:55:59;;;;;;;33.83;10.55;;;;;;;8.28;100.00;98341.53;5106188;27;20087;-47
2023/02/13 07:58:27;;;;;;;42.08;10.93;;;;;;;8.11;100.00;98341.59;5115893;27;20074;-45
2023/02/13 08:00:56;;;;;;;42.35;11.45;;;;;;;7.75;100.00;98347.88;5106602;27;20090;-48
2023/02/13 08:03:24;;;;;;;34.15;10.45;;;;;;;8.27;100.00;98339.84;5105651;27;20460;-49
2023/02/13 08:05:52;;;;;;;23.17;10.20;;;;;;;8.65;100.00;98334.25;5100824;28;20067;-50
2023/02/13 08:08:22;;;;;;;26.85;11.45;;;;;;;8.65;100.00;98339.53;5105496;27;20791;-54
2023/02/13 08:13:37;;;;;;;26.08;9.65;;;;;;;8.97;100.00;98335.06;5098992;27;20503;-46
2023/02/13 08:16:05;;;;;;;26.58;10.38;;;;;;;8.38;100.00;98328.75;5103382;27;20548;-46
2023/02/13 08:18:33;;;;;;;26.55;9.95;;;;;;;8.00;100.00;98338.72;5099973;27;20163;-51
2023/02/13 08:21:02;;;;;;;20.77;9.73;;;;;;;8.99;100.00;98332.34;5098887;28;20071;-51
2023/02/13 08:23:31;;;;;;;27.60;10.32;;;;;;;8.27;100.00;98333.75;5107776;27;20076;-52
2023/02/13 08:26:01;;;;;;;38.37;10.50;;;;;;;7.26;100.00;98353.06;5096108;27;20072;-44
2023/02/13 08:28:29;;;;;;;19.50;9.73;;;;;;;7.38;100.00;98344.53;5097764;27;20512;-49
2023/02/13 08:30:57;;;;;;;18.92;9.02;;;;;;;7.40;100.00;98349.72;5100208;27;20091;-54
2023/02/13 08:33:26;;;;;;;31.52;11.65;;;;;;;7.73;100.00;98346.25;5100464;27;20075;-51
2023/02/13 08:35:54;;;;;;;26.60;10.77;;;;;;;7.04;100.00;98355.88;5120492;27;20506;-52
2023/02/13 08:38:23;;;;;;;28.98;10.00;;;;;;;7.10;100.00;98354.75;5100852;27;20079;-53
2023/02/13 08:40:52;;;;;;;18.73;9.02;;;;;;;7.75;100.00;98345.25;5098945;27;20091;-51
2023/02/13 08:43:21;;;;;;;27.02;13.68;;;;;;;8.12;100.00;98351.19;5101962;27;20079;-54
2023/02/13 08:45:49;;;;;;;22.42;9.77;;;;;;;7.98;100.00;98341.44;5098644;27;20129;-54
2023/02/13 08:48:17;;;;;;;29.58;9.60;;;;;;;7.21;100.00;98352.41;5100836;27;20097;-50
2023/02/13 08:50:45;;;;;;;26.58;8.93;;;;;;;7.83;100.00;98350.94;5108824;27;20082;-49
2023/02/13 08:53:14;;;;;;;23.75;9.32;;;;;;;8.70;100.00;98345.34;5103962;27;20721;-55
2023/02/13 08:55:42;;;;;;;90.40;34.05;;;;;;;8.76;100.00;98345.03;5100798;27;20476;-52
2023/02/13 08:58:12;;;;;;;148.23;62.63;;;;;;;9.30;100.00;98341.09;5101244;28;20086;-48
2023/02/13 09:00:40;;;;;;;26.50;11.65;;;;;;;8.72;100.00;98345.28;5099657;27;20080;-53
2023/02/13 09:03:08;;;;;;;54.13;29.75;;;;;;;9.48;100.00;98340.00;5098159;27;20082;-45
2023/02/13 09:05:37;;;;;;;21.33;10.10;;;;;;;8.41;100.00;98340.91;5107316;27;20531;-46
2023/02/13 09:08:07;;;;;;;17.77;9.57;;;;;;;8.13;100.00;98352.88;5109294;27;20080;-46
2023/02/13 09:10:35;;;;;;;19.63;9.15;;;;;;;7.31;100.00;98356.28;5099019;28;20083;-50
2023/02/13 09:13:03;;;;;;;31.08;10.60;;;;;;;7.23;100.00;98361.06;5107803;27;20083;-48
2023/02/13 09:15:33;;;;;;;22.95;11.55;;;;;;;7.15;100.00;98365.84;5098405;27;20094;-50
2023/02/13 09:18:01;;;;;;;19.40;8.85;;;;;;;8.10;100.00;98368.81;5098417;27;20487;-52
2023/02/13 09:20:30;;;;;;;19.70;11.18;;;;;;;8.64;100.00;98356.25;5097924;27;20082;-49
2023/02/13 09:22:58;;;;;;;22.75;9.52;;;;;;;7.49;100.00;98369.38;5104832;27;20486;-50
2023/02/13 09:25:26;;;;;;;25.48;10.65;;;;;;;8.00;100.00;98357.94;5102850;27;20075;-46
2023/02/13 09:27:54;;;;;;;33.63;10.85;;;;;;;8.28;100.00;98367.81;5099584;27;20087;-49
2023/02/13 09:30:23;;;;;;;24.63;10.63;;;;;;;8.73;100.00;98358.34;5099993;27;20086;-51
2023/02/13 09:32:54;;;;;;;20.85;10.50;;;;;;;8.78;100.00;98361.56;5110608;27;20093;-54
2023/02/13 09:35:23;;;;;;;25.38;10.57;;;;;;;8.87;100.00;98359.34;5110483;27;20087;-52
2023/02/13 09:37:51;;;;;;;26.65;9.70;;;;;;;8.81;100.00;98355.31;5101316;27;20470;-52
2023/02/13 09:40:24;;;;;;;23.38;9.68;;;;;;;8.38;100.00;98360.31;5103783;27;20083;-50
2023/02/13 09:42:52;;;;;;;22.70;9.38;;;;;;;8.90;100.00;98357.38;5097307;27;20082;-45
2023/02/13 09:45:22;;;;;;;21.45;10.02;;;;;;;9.54;100.00;98357.22;5101569;27;20083;-54
2023/02/13 09:47:50;;;;;;;25.40;10.25;;;;;;;8.55;100.00;98359.38;5093368;28;20079;-50
2023/02/13 09:50:22;;;;;;;22.65;10.85;;;;;;;8.15;100.00;98363.31;5107124;27;20523;-48
2023/02/13 09:52:52;;;;;;;21.25;10.13;;;;;;;8.72;100.00;98361.91;5106686;27;20083;-46
2023/02/13 09:55:23;;;;;;;19.70;10.93;;;;;;;8.49;100.00;98357.09;5100459;28;20079;-45
2023/02/13 09:57:55;;;;;;;19.85;10.25;;;;;;;8.93;100.00;98365.13;5108617;27;20079;-49
2023/02/13 10:00:27;;;;;;;21.75;10.20;;;;;;;7.78;100.00;98370.53;5099540;28;20709;-52
2023/02/13 10:03:18;;;;;;;27.08;10.95;;;;;;;8.55;100.00;98359.38;5099496;27;20083;-48
2023/02/13 10:05:56;;;;;;;23.38;11.13;;;;;;;8.85;100.00;98369.97;5092304;27;20085;-54
2023/02/13 10:08:39;;;;;;;21.42;10.85;;;;;;;8.31;100.00;98367.66;5103893;27;20469;-54
2023/02/13 10:11:15;;;;;;;19.90;10.52;;;;;;;8.41;100.00;98359.31;5098611;28;20094;-53
2023/02/13 10:14:04;;;;;;;22.60;10.32;;;;;;;8.43;100.00;98370.56;5105252;27;20087;-49
2023/02/13 10:16:35;;;;;;;20.88;10.00;;;;;;;8.71;100.00;98369.91;5103832;27;20087;-50
2023/02/13 10:19:08;;;;;;;19.75;10.00;;;;;;;9.11;100.00;98365.84;5101149;28;20079;-50
2023/02/13 10:21:42;;;;;;;21.30;9.10;;;;;;;8.89;100.00;98358.34;5103260;27;20083;-46
2023/02/13 10:24:12;;;;;;;22.80;10.77;;;;;;;8.47;100.00;98369.50;5096532;28;20090;-51
2023/02/13 10:26:44;;;;;;;20.35;10.85;;;;;;;8.99;100.00;98362.13;5108545;27;20071;-49
2023/02/13 10:32:07;;;;;;;21.38;11.00;;;;;;;8.92;100.00;98357.31;5095971;27;20082;-47
2023/02/13 10:34:38;;;;;;;20.30;10.15;;;;;;;9.59;100.00;98349.88;5106818;27;20074;-52
2023/02/13 10:37:14;;;;;;;23.27;11.15;;;;;;;9.20;100.00;98356.56;5100400;27;20091;-52
2023/02/13 10:39:45;;;;;;;23.20;10.38;;;;;;;8.31;100.00;98353.66;5099427;27;20076;-48
2023/02/13 10:42:22;;;;;;;19.40;10.00;;;;;;;8.95;100.00;98346.63;5093552;28;20157;-50
2023/02/13 10:44:59;;;;;;;22.05;11.30;;;;;;;9.06;100.00;98349.47;5097014;28;20067;-50
2023/02/13 10:47:43;;;;;;;22.25;10.45;;;;;;;9.07;100.00;98348.53;5100759;27;20549;-49
2023/02/13 10:50:20;;;;;;;21.13;10.70;;;;;;;9.52;100.00;98344.97;5103620;28;20484;-51
2023/02/13 10:52:57;;;;;;;20.00;10.30;;;;;;;9.72;100.00;98341.16;5100834;28;20068;-47
2023/02/13 10:55:45;;;;;;;18.58;10.18;;;;;;;9.18;100.00;98343.47;5101170;28;20078;-45
2023/02/13 10:58:18;;;;;;;19.75;11.45;;;;;;;8.43;100.00;98339.88;5099659;28;20059;-47
2023/02/13 11:00:49;;;;;;;19.17;10.13;;;;;;;8.98;100.00;98334.13;5088706;28;20071;-49
2023/02/13 11:03:19;;;;;;;20.90;12.02;;;;;;;8.91;100.00;98329.28;5094404;28;20071;-48
2023/02/13 11:05:48;;;;;;;21.23;11.40;;;;;;;9.32;100.00;98320.78;5112007;28;20451;-46
2023/02/13 11:08:21;;;;;;;22.35;11.82;;;;;;;8.60;100.00;98331.03;5094384;28;20341;-51
2023/02/13 11:10:50;;;;;;;22.73;11.73;;;;;;;8.99;100.00;98321.81;5094680;28;20071;-52
2023/02/13 11:13:20;;;;;;;20.80;10.70;;;;;;;8.92;100.00;98318.69;5096448;28;20416;-50
2023/02/13 11:16:00;;;;;;;23.25;12.07;;;;;;;9.37;100.00;98311.66;5097217;28;20079;-49
2023/02/13 11:18:32;;;;;;;20.60;10.52;;;;;;;9.01;100.00;98310.25;5096610;28;20068;-45
2023/02/13 11:21:06;;;;;;;24.23;11.80;;;;;;;8.49;100.00;98317.66;5109226;28;20094;-48
2023/02/13 11:23:38;;;;;;;22.38;12.52;;;;;;;8.58;100.00;98316.28;5102024;28;20101;-50
2023/02/13 11:26:08;;;;;;;20.35;11.18;;;;;;;8.49;100.00;98317.66;5102133;27;20119;-48
2023/02/13 11:28:39;;;;;;;33.83;19.83;;;;;;;8.37;100.00;98316.53;5097140;28;20424;-47
2023/02/13 11:31:19;;;;;;;25.00;11.73;;;;;;;9.59;100.00;98308.59;5113831;28;20491;-46
2023/02/13 11:33:48;;;;;;;21.05;11.30;;;;;;;9.93;100.00;98311.78;5098675;28;20594;-51
2023/02/13 11:36:22;;;;;;;21.70;11.45;;;;;;;9.40;100.00;98310.66;5091048;28;20087;-48
2023/02/13 11:38:59;;;;;;;21.52;11.32;;;;;;;10.45;100.00;98317.28;5099271;27;20064;-51
2023/02/13 11:41:28;;;;;;;21.52;12.13;;;;;;;9.18;100.00;98318.94;5096746;27;20072;-51
2023/02/13 11:44:00;;;;;;;22.02;12.50;;;;;;;9.63;100.00;98323.25;5099496;27;20531;-50
2023/02/13 11:46:30;;;;;;;20.45;11.27;;;;;;;8.94;100.00;98323.84;5091848;28;20075;-44
2023/02/13 11:49:01;;;;;;;23.05;14.63;;;;;;;9.98;100.00;98315.84;5091810;27;20084;-51
2023/02/13 11:51:40;;;;;;;19.30;12.25;;;;;;;9.52;100.00;98321.28;5102994;27;20057;-47
2023/02/13 11:54:23;;;;;;;20.40;11.10;;;;;;;9.22;100.00;98328.34;5101802;27;20101;-52
2023/02/13 11:56:53;;;;;;;24.42;14.73;;;;;;;9.09;100.00;98320.34;5100995;27;20083;-48
2023/02/13 11:59:38;;;;;;;67.20;34.78;;;;;;;8.26;100.00;98324.16;5094100;27;20063;-52
2023/02/13 12:02:18;;;;;;;47.97;23.50;;;;;;;8.59;100.00;98323.25;5100527;27;20079;-47
2023/02/13 12:04:48;;;;;;;28.00;17.83;;;;;;;9.22;100.00;98318.69;5104599;27;20082;-48
2023/02/13 12:07:20;;;;;;;19.88;11.98;;;;;;;8.95;100.00;98320.31;5094452;27;20078;-53
2023/02/13 12:09:53;;;;;;;22.20;13.35;;;;;;;8.71;100.00;98312.88;5094576;27;20079;-54
2023/02/13 12:12:27;;;;;;;21.60;13.85;;;;;;;9.28;100.00;98306.94;5101784;27;20534;-47
2023/02/13 12:14:56;;;;;;;18.90;11.63;;;;;;;10.58;100.00;98306.81;5096063;27;20079;-50
2023/02/13 12:17:27;;;;;;;19.83;12.38;;;;;;;9.12;100.00;98311.41;5096559;27;20075;-53
2023/02/13 12:20:00;;;;;;;18.50;11.32;;;;;;;9.77;100.00;98311.03;5096097;27;20067;-53
2023/02/13 12:22:32;;;;;;;18.48;11.95;;;;;;;9.50;100.00;98312.63;5098830;28;20460;-52